createdAt,value
2017-11-24T00:00:07.855Z,77.3
2017-11-24T00:10:22.679Z,77.3
2017-11-24T00:20:40.871Z,77.1
2017-11-24T00:31:09.445Z,77.1
2017-11-24T00:41:22.741Z,77.0
2017-11-24T00:51:37.912Z,77.1
2017-11-24T01:02:30.007Z,76.9
2017-11-24T01:13:16.334Z,76.8
2017-11-24T01:24:05.016Z,76.7
2017-11-24T01:34:19.204Z,76.6
2017-11-24T01:44:43.897Z,76.8
2017-11-24T01:55:29.424Z,76.9
2017-11-24T02:06:16.938Z,76.8
2017-11-24T02:17:07.092Z,77.0
2017-11-24T02:27:54.124Z,77.1
2017-11-24T02:38:09.479Z,77.3
2017-11-24T02:48:55.993Z,77.3
2017-11-24T02:59:10.558Z,77.3
2017-11-24T03:09:56.080Z,77.6
2017-11-24T03:20:13.325Z,77.6
2017-11-24T03:30:28.962Z,77.9
2017-11-24T03:40:45.943Z,78.0
2017-11-24T03:51:00.465Z,78.4
2017-11-24T04:01:14.729Z,78.6
2017-11-24T04:11:39.994Z,78.7
2017-11-24T04:22:00.681Z,78.4
2017-11-24T04:32:49.037Z,78.2
2017-11-24T04:43:07.053Z,78.0
2017-11-24T04:53:22.956Z,78.0
2017-11-24T05:03:41.734Z,78.0
2017-11-24T05:13:56.221Z,77.9
2017-11-24T05:24:45.757Z,78.0
2017-11-24T05:35:05.397Z,78.0
2017-11-24T05:45:24.205Z,78.1
2017-11-24T05:55:38.647Z,78.1
2017-11-24T06:05:57.947Z,78.1
2017-11-24T06:16:45.198Z,78.0
2017-11-24T06:27:00.471Z,77.9
2017-11-24T06:37:45.323Z,78.0
2017-11-24T06:48:02.034Z,77.8
2017-11-24T06:58:22.050Z,77.6
2017-11-24T07:08:36.514Z,77.4
2017-11-24T07:18:48.477Z,77.7
2017-11-24T07:29:19.227Z,77.7
2017-11-24T07:39:34.132Z,77.6
2017-11-24T07:50:10.568Z,77.7
2017-11-24T08:00:27.213Z,77.8
2017-11-24T08:11:25.836Z,77.9
2017-11-24T08:21:50.532Z,78.0
2017-11-24T08:32:38.934Z,78.3
2017-11-24T08:43:07.441Z,78.4
2017-11-24T08:53:25.430Z,78.8
2017-11-24T09:03:44.961Z,78.8
2017-11-24T09:14:31.033Z,78.6
2017-11-24T09:24:44.730Z,78.3
2017-11-24T09:36:07.669Z,78.3
2017-11-24T09:46:27.486Z,78.4
2017-11-24T09:56:56.225Z,78.5
2017-11-24T10:07:11.759Z,78.7
2017-11-24T10:17:28.093Z,78.8
2017-11-24T10:27:41.469Z,79.1
2017-11-24T10:37:52.618Z,79.1
2017-11-24T10:48:06.799Z,79.6
2017-11-24T10:58:30.614Z,80.0
2017-11-24T11:08:47.424Z,79.5
2017-11-24T11:19:11.771Z,79.0
2017-11-24T11:29:24.808Z,78.8
2017-11-24T11:40:08.395Z,78.8
2017-11-24T11:50:22.460Z,78.9
2017-11-24T12:01:45.950Z,78.5
2017-11-24T12:12:04.536Z,78.5
2017-11-24T12:22:18.932Z,79.5
2017-11-24T12:32:30.661Z,81.0
2017-11-24T12:42:47.117Z,79.9
2017-11-24T12:53:00.987Z,78.4
2017-11-24T13:03:46.953Z,77.9
2017-11-24T13:14:34.339Z,77.8
2017-11-24T13:25:19.429Z,77.3
2017-11-24T13:35:31.397Z,76.8
2017-11-24T13:45:43.192Z,76.8
2017-11-24T13:55:57.492Z,76.5
2017-11-24T14:06:14.452Z,76.2
2017-11-24T14:16:30.552Z,76.1
2017-11-24T14:26:45.765Z,76.5
2017-11-24T14:37:00.848Z,77.1
2017-11-24T14:47:46.122Z,77.7
2017-11-24T14:57:57.032Z,77.4
2017-11-24T15:08:46.021Z,77.1
2017-11-24T15:18:59.514Z,77.6
2017-11-24T15:29:25.914Z,77.4
2017-11-24T15:39:47.526Z,77.0
2017-11-24T15:50:08.213Z,76.8
2017-11-24T16:00:28.266Z,76.6
2017-11-24T16:10:41.981Z,76.5
2017-11-24T16:20:55.291Z,76.3
2017-11-24T16:31:06.580Z,76.1
2017-11-24T16:41:54.533Z,76.0
2017-11-24T16:52:39.489Z,75.6
2017-11-24T17:03:59.636Z,75.9
2017-11-24T17:14:13.333Z,75.8
2017-11-24T17:24:30.297Z,76.0
2017-11-24T17:34:43.928Z,76.0
2017-11-24T17:44:57.231Z,76.0
2017-11-24T17:55:53.549Z,76.0
2017-11-24T18:06:38.129Z,75.9
2017-11-24T18:16:50.934Z,75.7
2017-11-24T18:27:05.612Z,75.5
2017-11-24T18:37:50.500Z,75.5
2017-11-24T18:48:38.248Z,75.5
2017-11-24T18:59:23.559Z,75.6
2017-11-24T19:10:26.967Z,75.6
2017-11-24T19:21:30.561Z,75.7
2017-11-24T19:31:51.684Z,75.7
2017-11-24T19:42:11.439Z,76.2
2017-11-24T19:53:03.126Z,76.3
2017-11-24T20:03:24.631Z,76.5
2017-11-24T20:14:16.053Z,76.5
2017-11-24T20:25:04.176Z,76.6
2017-11-24T20:35:23.339Z,76.7
2017-11-24T20:46:18.021Z,76.6
2017-11-24T20:57:04.364Z,76.7
2017-11-24T21:07:22.695Z,76.8
2017-11-24T21:17:38.162Z,76.8
2017-11-24T21:28:03.860Z,76.9
2017-11-24T21:38:21.268Z,77.0
2017-11-24T21:48:40.658Z,77.0
2017-11-24T21:58:57.002Z,77.0
2017-11-24T22:09:12.380Z,77.0
2017-11-24T22:20:09.731Z,77.1
2017-11-24T22:30:24.552Z,76.8
2017-11-24T22:41:21.392Z,76.9
2017-11-24T22:51:39.699Z,76.8
2017-11-24T23:01:53.532Z,76.8
2017-11-24T23:12:06.117Z,76.9
2017-11-24T23:22:55.732Z,76.9
2017-11-24T23:33:11.185Z,77.0
2017-11-24T23:43:38.686Z,77.0
2017-11-24T23:53:53.591Z,77.0
